sensor_id;sensor_type;location;lat;lon;timestamp;P1;durP1;ratioP1;P2;durP2;ratioP2
23614;SDS011;11985;49.404;7.734;2023-04-24T00:03:01;5.53;;;1.50;;
23614;SDS011;11985;49.404;7.734;2023-04-24T00:08:05;4.28;;;1.23;;
23614;SDS011;11985;49.404;7.734;2023-04-24T00:13:06;3.13;;;1.20;;
23614;SDS011;11985;49.404;7.734;2023-04-24T00:18:08;4.70;;;1.17;;
23614;SDS011;11985;49.404;7.734;2023-04-24T00:23:11;5.57;;;1.10;;
23614;SDS011;11985;49.404;7.734;2023-04-24T00:28:13;4.28;;;1.10;;
23614;SDS011;11985;49.404;7.734;2023-04-24T00:33:14;5.10;;;1.10;;
23614;SDS011;11985;49.404;7.734;2023-04-24T00:38:17;4.95;;;1.13;;
23614;SDS011;11985;49.404;7.734;2023-04-24T00:43:19;3.97;;;1.23;;
23614;SDS011;11985;49.404;7.734;2023-04-24T00:48:21;7.00;;;1.27;;
23614;SDS011;11985;49.404;7.734;2023-04-24T00:53:24;7.93;;;1.30;;
23614;SDS011;11985;49.404;7.734;2023-04-24T00:58:25;7.72;;;1.13;;
23614;SDS011;11985;49.404;7.734;2023-04-24T01:03:28;6.40;;;1.42;;
23614;SDS011;11985;49.404;7.734;2023-04-24T01:08:32;3.85;;;1.00;;
23614;SDS011;11985;49.404;7.734;2023-04-24T01:13:37;6.75;;;1.23;;
23614;SDS011;11985;49.404;7.734;2023-04-24T01:18:38;3.17;;;1.35;;
23614;SDS011;11985;49.404;7.734;2023-04-24T01:23:42;4.70;;;1.08;;
23614;SDS011;11985;49.404;7.734;2023-04-24T01:28:44;3.55;;;1.13;;
23614;SDS011;11985;49.404;7.734;2023-04-24T01:33:46;3.90;;;1.10;;
23614;SDS011;11985;49.404;7.734;2023-04-24T01:38:49;5.28;;;1.20;;
23614;SDS011;11985;49.404;7.734;2023-04-24T01:43:51;3.85;;;1.27;;
23614;SDS011;11985;49.404;7.734;2023-04-24T01:48:53;1.60;;;1.27;;
23614;SDS011;11985;49.404;7.734;2023-04-24T01:53:57;2.05;;;1.45;;
23614;SDS011;11985;49.404;7.734;2023-04-24T01:58:59;3.65;;;1.30;;
23614;SDS011;11985;49.404;7.734;2023-04-24T02:04:02;3.67;;;1.67;;
23614;SDS011;11985;49.404;7.734;2023-04-24T02:09:05;4.97;;;2.15;;
23614;SDS011;11985;49.404;7.734;2023-04-24T02:14:06;5.88;;;2.17;;
23614;SDS011;11985;49.404;7.734;2023-04-24T02:19:08;3.33;;;2.10;;
23614;SDS011;11985;49.404;7.734;2023-04-24T02:24:11;7.25;;;2.70;;
23614;SDS011;11985;49.404;7.734;2023-04-24T02:29:13;7.05;;;2.72;;
23614;SDS011;11985;49.404;7.734;2023-04-24T02:34:14;4.90;;;2.95;;
23614;SDS011;11985;49.404;7.734;2023-04-24T02:39:17;5.68;;;2.88;;
23614;SDS011;11985;49.404;7.734;2023-04-24T02:44:19;9.45;;;3.17;;
23614;SDS011;11985;49.404;7.734;2023-04-24T02:49:21;5.10;;;3.20;;
23614;SDS011;11985;49.404;7.734;2023-04-24T02:54:24;4.05;;;2.80;;
23614;SDS011;11985;49.404;7.734;2023-04-24T02:59:26;6.07;;;3.15;;
23614;SDS011;11985;49.404;7.734;2023-04-24T03:04:28;3.72;;;3.20;;
23614;SDS011;11985;49.404;7.734;2023-04-24T03:09:31;4.60;;;2.80;;
23614;SDS011;11985;49.404;7.734;2023-04-24T03:14:33;4.72;;;3.47;;
23614;SDS011;11985;49.404;7.734;2023-04-24T03:19:35;4.72;;;3.38;;
23614;SDS011;11985;49.404;7.734;2023-04-24T03:24:38;6.13;;;3.85;;
23614;SDS011;11985;49.404;7.734;2023-04-24T03:29:40;8.25;;;3.90;;
23614;SDS011;11985;49.404;7.734;2023-04-24T03:34:41;7.95;;;4.47;;
23614;SDS011;11985;49.404;7.734;2023-04-24T03:39:44;8.18;;;4.70;;
23614;SDS011;11985;49.404;7.734;2023-04-24T03:44:46;8.60;;;4.68;;
23614;SDS011;11985;49.404;7.734;2023-04-24T03:49:48;6.03;;;4.68;;
23614;SDS011;11985;49.404;7.734;2023-04-24T03:54:51;7.63;;;4.72;;
23614;SDS011;11985;49.404;7.734;2023-04-24T03:59:53;8.48;;;4.15;;
23614;SDS011;11985;49.404;7.734;2023-04-24T04:04:55;11.63;;;4.95;;
23614;SDS011;11985;49.404;7.734;2023-04-24T04:09:58;6.47;;;4.32;;
23614;SDS011;11985;49.404;7.734;2023-04-24T04:15:00;7.28;;;5.10;;
23614;SDS011;11985;49.404;7.734;2023-04-24T04:20:01;9.90;;;4.70;;
23614;SDS011;11985;49.404;7.734;2023-04-24T04:25:08;9.93;;;5.72;;
23614;SDS011;11985;49.404;7.734;2023-04-24T04:30:11;9.47;;;5.73;;
23614;SDS011;11985;49.404;7.734;2023-04-24T04:35:13;11.80;;;6.85;;
23614;SDS011;11985;49.404;7.734;2023-04-24T04:40:16;15.98;;;7.15;;
23614;SDS011;11985;49.404;7.734;2023-04-24T04:45:17;10.32;;;6.50;;
23614;SDS011;11985;49.404;7.734;2023-04-24T04:50:20;9.95;;;6.30;;
23614;SDS011;11985;49.404;7.734;2023-04-24T04:55:24;9.23;;;5.88;;
23614;SDS011;11985;49.404;7.734;2023-04-24T05:00:26;11.98;;;6.57;;
23614;SDS011;11985;49.404;7.734;2023-04-24T05:05:29;10.25;;;6.80;;
23614;SDS011;11985;49.404;7.734;2023-04-24T05:10:32;9.48;;;6.65;;
23614;SDS011;11985;49.404;7.734;2023-04-24T05:15:33;12.07;;;6.68;;
23614;SDS011;11985;49.404;7.734;2023-04-24T05:20:35;10.43;;;6.35;;
23614;SDS011;11985;49.404;7.734;2023-04-24T05:25:38;11.38;;;6.85;;
23614;SDS011;11985;49.404;7.734;2023-04-24T05:30:40;9.60;;;6.13;;
23614;SDS011;11985;49.404;7.734;2023-04-24T05:35:42;11.07;;;5.78;;
23614;SDS011;11985;49.404;7.734;2023-04-24T05:40:47;11.38;;;6.68;;
23614;SDS011;11985;49.404;7.734;2023-04-24T05:45:48;9.82;;;6.18;;
23614;SDS011;11985;49.404;7.734;2023-04-24T05:50:50;8.50;;;6.03;;
23614;SDS011;11985;49.404;7.734;2023-04-24T05:55:53;9.35;;;6.70;;
23614;SDS011;11985;49.404;7.734;2023-04-24T06:00:55;11.55;;;7.25;;
23614;SDS011;11985;49.404;7.734;2023-04-24T06:05:58;10.38;;;6.28;;
23614;SDS011;11985;49.404;7.734;2023-04-24T06:11:01;10.80;;;6.38;;
23614;SDS011;11985;49.404;7.734;2023-04-24T06:16:03;11.95;;;5.95;;
23614;SDS011;11985;49.404;7.734;2023-04-24T06:21:05;7.10;;;5.32;;
23614;SDS011;11985;49.404;7.734;2023-04-24T06:26:11;7.38;;;4.45;;
23614;SDS011;11985;49.404;7.734;2023-04-24T06:31:13;7.07;;;4.75;;
23614;SDS011;11985;49.404;7.734;2023-04-24T06:36:15;10.43;;;4.90;;
23614;SDS011;11985;49.404;7.734;2023-04-24T06:41:19;9.15;;;4.20;;
23614;SDS011;11985;49.404;7.734;2023-04-24T06:46:21;7.47;;;4.53;;
23614;SDS011;11985;49.404;7.734;2023-04-24T06:51:24;7.47;;;4.10;;
23614;SDS011;11985;49.404;7.734;2023-04-24T06:56:27;4.43;;;3.15;;
23614;SDS011;11985;49.404;7.734;2023-04-24T07:01:29;7.00;;;3.90;;
23614;SDS011;11985;49.404;7.734;2023-04-24T07:06:30;7.90;;;3.65;;
23614;SDS011;11985;49.404;7.734;2023-04-24T07:11:33;4.65;;;2.97;;
23614;SDS011;11985;49.404;7.734;2023-04-24T07:16:35;4.75;;;2.40;;
23614;SDS011;11985;49.404;7.734;2023-04-24T07:21:37;3.15;;;2.50;;
23614;SDS011;11985;49.404;7.734;2023-04-24T07:26:40;4.00;;;2.97;;
23614;SDS011;11985;49.404;7.734;2023-04-24T07:31:41;3.90;;;2.65;;
23614;SDS011;11985;49.404;7.734;2023-04-24T07:36:43;5.07;;;2.92;;
23614;SDS011;11985;49.404;7.734;2023-04-24T07:41:46;9.18;;;3.63;;
23614;SDS011;11985;49.404;7.734;2023-04-24T07:46:48;4.50;;;3.50;;
23614;SDS011;11985;49.404;7.734;2023-04-24T07:51:50;4.15;;;3.00;;
23614;SDS011;11985;49.404;7.734;2023-04-24T07:56:53;5.10;;;2.95;;
23614;SDS011;11985;49.404;7.734;2023-04-24T08:01:54;4.15;;;3.05;;
23614;SDS011;11985;49.404;7.734;2023-04-24T08:06:56;6.72;;;3.28;;
23614;SDS011;11985;49.404;7.734;2023-04-24T08:11:59;6.50;;;3.45;;
23614;SDS011;11985;49.404;7.734;2023-04-24T08:17:01;5.63;;;3.20;;
23614;SDS011;11985;49.404;7.734;2023-04-24T08:22:03;4.68;;;2.75;;
23614;SDS011;11985;49.404;7.734;2023-04-24T08:27:06;5.65;;;2.85;;
23614;SDS011;11985;49.404;7.734;2023-04-24T08:32:08;7.93;;;3.55;;
23614;SDS011;11985;49.404;7.734;2023-04-24T08:37:09;7.95;;;3.75;;
23614;SDS011;11985;49.404;7.734;2023-04-24T08:42:12;5.45;;;3.72;;
23614;SDS011;11985;49.404;7.734;2023-04-24T08:47:15;5.57;;;4.10;;
23614;SDS011;11985;49.404;7.734;2023-04-24T08:52:17;8.35;;;4.03;;
23614;SDS011;11985;49.404;7.734;2023-04-24T08:57:21;6.78;;;3.97;;
23614;SDS011;11985;49.404;7.734;2023-04-24T09:02:24;10.57;;;4.55;;
23614;SDS011;11985;49.404;7.734;2023-04-24T09:07:26;7.20;;;4.63;;
23614;SDS011;11985;49.404;7.734;2023-04-24T09:12:32;7.50;;;4.32;;
23614;SDS011;11985;49.404;7.734;2023-04-24T09:17:35;8.43;;;5.07;;
23614;SDS011;11985;49.404;7.734;2023-04-24T09:22:37;8.13;;;5.15;;
23614;SDS011;11985;49.404;7.734;2023-04-24T09:27:42;9.95;;;5.68;;
23614;SDS011;11985;49.404;7.734;2023-04-24T09:32:45;8.82;;;5.65;;
23614;SDS011;11985;49.404;7.734;2023-04-24T09:37:47;11.07;;;5.85;;
23614;SDS011;11985;49.404;7.734;2023-04-24T09:42:52;9.13;;;5.03;;
23614;SDS011;11985;49.404;7.734;2023-04-24T09:47:56;8.52;;;5.43;;
23614;SDS011;11985;49.404;7.734;2023-04-24T09:52:58;7.90;;;5.07;;
23614;SDS011;11985;49.404;7.734;2023-04-24T09:58:03;9.70;;;4.63;;
23614;SDS011;11985;49.404;7.734;2023-04-24T10:03:05;9.13;;;5.68;;
23614;SDS011;11985;49.404;7.734;2023-04-24T10:08:09;7.45;;;5.65;;
23614;SDS011;11985;49.404;7.734;2023-04-24T10:13:13;12.20;;;6.18;;
23614;SDS011;11985;49.404;7.734;2023-04-24T10:18:15;9.52;;;6.10;;
23614;SDS011;11985;49.404;7.734;2023-04-24T10:23:17;10.75;;;5.82;;
23614;SDS011;11985;49.404;7.734;2023-04-24T10:28:22;8.88;;;5.90;;
23614;SDS011;11985;49.404;7.734;2023-04-24T10:33:25;14.15;;;6.25;;
23614;SDS011;11985;49.404;7.734;2023-04-24T10:38:27;8.77;;;5.28;;
23614;SDS011;11985;49.404;7.734;2023-04-24T10:43:31;8.27;;;5.72;;
23614;SDS011;11985;49.404;7.734;2023-04-24T10:48:34;8.90;;;4.67;;
23614;SDS011;11985;49.404;7.734;2023-04-24T10:53:36;11.40;;;6.55;;
23614;SDS011;11985;49.404;7.734;2023-04-24T10:58:40;12.40;;;6.18;;
23614;SDS011;11985;49.404;7.734;2023-04-24T11:03:50;11.68;;;6.00;;
23614;SDS011;11985;49.404;7.734;2023-04-24T11:08:58;16.10;;;7.22;;
23614;SDS011;11985;49.404;7.734;2023-04-24T11:14:06;12.05;;;8.15;;
23614;SDS011;11985;49.404;7.734;2023-04-24T11:19:09;11.98;;;5.90;;
23614;SDS011;11985;49.404;7.734;2023-04-24T11:24:26;16.27;;;8.60;;
23614;SDS011;11985;49.404;7.734;2023-04-24T11:29:41;11.15;;;6.13;;
23614;SDS011;11985;49.404;7.734;2023-04-24T11:34:45;10.23;;;5.53;;
23614;SDS011;11985;49.404;7.734;2023-04-24T11:39:50;11.13;;;5.57;;
23614;SDS011;11985;49.404;7.734;2023-04-24T11:44:54;11.90;;;5.38;;
23614;SDS011;11985;49.404;7.734;2023-04-24T11:49:57;9.90;;;5.03;;
23614;SDS011;11985;49.404;7.734;2023-04-24T11:54:59;8.10;;;4.97;;
23614;SDS011;11985;49.404;7.734;2023-04-24T12:00:03;12.65;;;5.40;;
23614;SDS011;11985;49.404;7.734;2023-04-24T12:10:08;7.88;;;4.65;;
23614;SDS011;11985;49.404;7.734;2023-04-24T12:15:11;11.10;;;4.63;;
23614;SDS011;11985;49.404;7.734;2023-04-24T12:20:13;8.70;;;4.70;;
23614;SDS011;11985;49.404;7.734;2023-04-24T12:25:16;9.10;;;4.97;;
23614;SDS011;11985;49.404;7.734;2023-04-24T12:30:21;7.85;;;4.88;;
23614;SDS011;11985;49.404;7.734;2023-04-24T12:35:28;10.02;;;4.95;;
23614;SDS011;11985;49.404;7.734;2023-04-24T12:40:31;6.03;;;4.57;;
23614;SDS011;11985;49.404;7.734;2023-04-24T12:45:34;8.27;;;5.07;;
23614;SDS011;11985;49.404;7.734;2023-04-24T12:50:36;9.55;;;5.43;;
23614;SDS011;11985;49.404;7.734;2023-04-24T12:55:38;6.68;;;4.03;;
23614;SDS011;11985;49.404;7.734;2023-04-24T13:00:41;7.47;;;4.30;;
23614;SDS011;11985;49.404;7.734;2023-04-24T13:05:45;6.28;;;3.95;;
23614;SDS011;11985;49.404;7.734;2023-04-24T13:10:47;6.28;;;4.15;;
23614;SDS011;11985;49.404;7.734;2023-04-24T13:15:50;6.88;;;3.97;;
23614;SDS011;11985;49.404;7.734;2023-04-24T13:20:52;9.40;;;4.93;;
23614;SDS011;11985;49.404;7.734;2023-04-24T13:25:53;10.90;;;5.15;;
23614;SDS011;11985;49.404;7.734;2023-04-24T13:30:59;8.83;;;5.00;;
23614;SDS011;11985;49.404;7.734;2023-04-24T13:36:00;15.77;;;5.82;;
23614;SDS011;11985;49.404;7.734;2023-04-24T13:41:02;8.20;;;6.28;;
23614;SDS011;11985;49.404;7.734;2023-04-24T13:46:05;8.98;;;4.55;;
23614;SDS011;11985;49.404;7.734;2023-04-24T13:51:07;8.07;;;4.55;;
23614;SDS011;11985;49.404;7.734;2023-04-24T13:56:08;8.73;;;4.70;;
23614;SDS011;11985;49.404;7.734;2023-04-24T14:01:11;9.73;;;4.28;;
23614;SDS011;11985;49.404;7.734;2023-04-24T14:06:13;9.90;;;4.65;;
23614;SDS011;11985;49.404;7.734;2023-04-24T14:11:15;13.25;;;5.25;;
23614;SDS011;11985;49.404;7.734;2023-04-24T14:16:18;10.85;;;5.90;;
23614;SDS011;11985;49.404;7.734;2023-04-24T14:21:19;8.85;;;3.97;;
23614;SDS011;11985;49.404;7.734;2023-04-24T14:26:21;7.43;;;5.20;;
23614;SDS011;11985;49.404;7.734;2023-04-24T14:31:25;12.38;;;6.95;;
23614;SDS011;11985;49.404;7.734;2023-04-24T14:36:27;12.85;;;7.78;;
23614;SDS011;11985;49.404;7.734;2023-04-24T14:41:29;6.63;;;4.30;;
23614;SDS011;11985;49.404;7.734;2023-04-24T14:46:32;4.28;;;3.10;;
23614;SDS011;11985;49.404;7.734;2023-04-24T14:51:34;8.82;;;4.05;;
23614;SDS011;11985;49.404;7.734;2023-04-24T14:56:36;4.88;;;3.22;;
23614;SDS011;11985;49.404;7.734;2023-04-24T15:01:42;6.87;;;3.90;;
23614;SDS011;11985;49.404;7.734;2023-04-24T15:06:43;4.57;;;3.17;;
23614;SDS011;11985;49.404;7.734;2023-04-24T15:11:45;6.35;;;3.20;;
23614;SDS011;11985;49.404;7.734;2023-04-24T15:16:48;8.90;;;4.45;;
23614;SDS011;11985;49.404;7.734;2023-04-24T15:21:50;4.90;;;3.20;;
23614;SDS011;11985;49.404;7.734;2023-04-24T15:26:51;8.20;;;3.38;;
23614;SDS011;11985;49.404;7.734;2023-04-24T15:31:55;6.32;;;3.25;;
23614;SDS011;11985;49.404;7.734;2023-04-24T15:36:57;6.38;;;3.15;;
23614;SDS011;11985;49.404;7.734;2023-04-24T15:41:59;3.63;;;2.65;;
23614;SDS011;11985;49.404;7.734;2023-04-24T15:47:02;5.28;;;2.90;;
23614;SDS011;11985;49.404;7.734;2023-04-24T15:52:03;5.63;;;3.30;;
23614;SDS011;11985;49.404;7.734;2023-04-24T15:57:05;3.75;;;2.75;;
23614;SDS011;11985;49.404;7.734;2023-04-24T16:02:08;3.67;;;2.58;;
23614;SDS011;11985;49.404;7.734;2023-04-24T16:07:17;4.13;;;3.22;;
23614;SDS011;11985;49.404;7.734;2023-04-24T16:12:19;6.35;;;2.50;;
23614;SDS011;11985;49.404;7.734;2023-04-24T16:17:22;4.18;;;2.35;;
23614;SDS011;11985;49.404;7.734;2023-04-24T16:22:24;3.85;;;3.03;;
23614;SDS011;11985;49.404;7.734;2023-04-24T16:27:25;4.15;;;2.90;;
23614;SDS011;11985;49.404;7.734;2023-04-24T16:32:28;3.38;;;2.58;;
23614;SDS011;11985;49.404;7.734;2023-04-24T16:37:30;5.82;;;3.25;;
23614;SDS011;11985;49.404;7.734;2023-04-24T16:42:32;6.05;;;2.95;;
23614;SDS011;11985;49.404;7.734;2023-04-24T16:47:35;6.43;;;3.65;;
23614;SDS011;11985;49.404;7.734;2023-04-24T16:52:37;6.40;;;3.13;;
23614;SDS011;11985;49.404;7.734;2023-04-24T16:57:39;4.70;;;2.65;;
23614;SDS011;11985;49.404;7.734;2023-04-24T17:02:42;3.38;;;2.70;;
23614;SDS011;11985;49.404;7.734;2023-04-24T17:07:47;5.90;;;2.65;;
23614;SDS011;11985;49.404;7.734;2023-04-24T17:12:49;9.45;;;2.97;;
23614;SDS011;11985;49.404;7.734;2023-04-24T17:17:52;3.75;;;3.05;;
23614;SDS011;11985;49.404;7.734;2023-04-24T17:22:54;6.10;;;3.55;;
23614;SDS011;11985;49.404;7.734;2023-04-24T17:27:55;5.85;;;3.95;;
23614;SDS011;11985;49.404;7.734;2023-04-24T17:32:58;9.85;;;4.28;;
23614;SDS011;11985;49.404;7.734;2023-04-24T17:38:00;9.70;;;4.68;;
23614;SDS011;11985;49.404;7.734;2023-04-24T17:43:02;6.22;;;3.67;;
23614;SDS011;11985;49.404;7.734;2023-04-24T17:48:05;6.60;;;3.40;;
23614;SDS011;11985;49.404;7.734;2023-04-24T17:53:06;6.38;;;4.00;;
23614;SDS011;11985;49.404;7.734;2023-04-24T17:58:09;7.50;;;3.63;;
23614;SDS011;11985;49.404;7.734;2023-04-24T18:03:13;5.47;;;3.28;;
23614;SDS011;11985;49.404;7.734;2023-04-24T18:08:15;4.78;;;3.47;;
23614;SDS011;11985;49.404;7.734;2023-04-24T18:13:17;4.78;;;3.42;;
23614;SDS011;11985;49.404;7.734;2023-04-24T18:18:20;6.82;;;3.40;;
23614;SDS011;11985;49.404;7.734;2023-04-24T18:23:21;3.65;;;2.75;;
23614;SDS011;11985;49.404;7.734;2023-04-24T18:28:23;5.00;;;2.97;;
23614;SDS011;11985;49.404;7.734;2023-04-24T18:33:26;4.50;;;2.95;;
23614;SDS011;11985;49.404;7.734;2023-04-24T18:38:28;7.85;;;3.45;;
23614;SDS011;11985;49.404;7.734;2023-04-24T18:43:29;8.18;;;3.47;;
23614;SDS011;11985;49.404;7.734;2023-04-24T18:48:32;12.30;;;5.32;;
23614;SDS011;11985;49.404;7.734;2023-04-24T18:53:34;6.63;;;3.63;;
23614;SDS011;11985;49.404;7.734;2023-04-24T18:58:36;4.68;;;3.60;;
23614;SDS011;11985;49.404;7.734;2023-04-24T19:03:39;7.15;;;3.88;;
23614;SDS011;11985;49.404;7.734;2023-04-24T19:08:40;6.68;;;4.70;;
23614;SDS011;11985;49.404;7.734;2023-04-24T19:13:43;7.45;;;4.22;;
23614;SDS011;11985;49.404;7.734;2023-04-24T19:18:46;6.40;;;3.95;;
23614;SDS011;11985;49.404;7.734;2023-04-24T19:23:48;6.38;;;3.90;;
23614;SDS011;11985;49.404;7.734;2023-04-24T19:28:51;7.15;;;4.43;;
23614;SDS011;11985;49.404;7.734;2023-04-24T19:33:58;8.75;;;4.30;;
23614;SDS011;11985;49.404;7.734;2023-04-24T19:38:59;7.65;;;4.35;;
23614;SDS011;11985;49.404;7.734;2023-04-24T19:44:01;8.05;;;4.07;;
23614;SDS011;11985;49.404;7.734;2023-04-24T19:49:04;7.20;;;3.65;;
23614;SDS011;11985;49.404;7.734;2023-04-24T19:54:06;7.10;;;4.82;;
23614;SDS011;11985;49.404;7.734;2023-04-24T19:59:07;6.45;;;4.60;;
23614;SDS011;11985;49.404;7.734;2023-04-24T20:04:10;6.13;;;4.53;;
23614;SDS011;11985;49.404;7.734;2023-04-24T20:09:12;11.27;;;5.10;;
23614;SDS011;11985;49.404;7.734;2023-04-24T20:14:13;8.65;;;5.72;;
23614;SDS011;11985;49.404;7.734;2023-04-24T20:19:17;9.23;;;5.93;;
23614;SDS011;11985;49.404;7.734;2023-04-24T20:24:18;9.35;;;5.50;;
23614;SDS011;11985;49.404;7.734;2023-04-24T20:29:20;8.27;;;5.85;;
23614;SDS011;11985;49.404;7.734;2023-04-24T20:34:23;12.05;;;5.72;;
23614;SDS011;11985;49.404;7.734;2023-04-24T20:39:25;9.65;;;5.78;;
23614;SDS011;11985;49.404;7.734;2023-04-24T20:44:26;9.75;;;6.18;;
23614;SDS011;11985;49.404;7.734;2023-04-24T20:49:29;11.73;;;6.40;;
23614;SDS011;11985;49.404;7.734;2023-04-24T20:54:31;8.88;;;5.72;;
23614;SDS011;11985;49.404;7.734;2023-04-24T20:59:32;9.65;;;6.38;;
23614;SDS011;11985;49.404;7.734;2023-04-24T21:04:35;11.20;;;6.60;;
23614;SDS011;11985;49.404;7.734;2023-04-24T21:09:38;12.35;;;6.38;;
23614;SDS011;11985;49.404;7.734;2023-04-24T21:14:40;8.93;;;6.30;;
23614;SDS011;11985;49.404;7.734;2023-04-24T21:19:43;8.20;;;4.82;;
23614;SDS011;11985;49.404;7.734;2023-04-24T21:24:45;8.25;;;4.57;;
23614;SDS011;11985;49.404;7.734;2023-04-24T21:29:47;6.63;;;4.50;;
23614;SDS011;11985;49.404;7.734;2023-04-24T21:34:50;6.20;;;4.40;;
23614;SDS011;11985;49.404;7.734;2023-04-24T21:39:51;6.78;;;4.30;;
23614;SDS011;11985;49.404;7.734;2023-04-24T21:44:53;5.32;;;3.85;;
23614;SDS011;11985;49.404;7.734;2023-04-24T21:49:56;4.57;;;3.65;;
23614;SDS011;11985;49.404;7.734;2023-04-24T21:54:57;7.20;;;4.55;;
23614;SDS011;11985;49.404;7.734;2023-04-24T21:59:59;7.95;;;4.75;;
23614;SDS011;11985;49.404;7.734;2023-04-24T22:05:02;8.60;;;5.28;;
23614;SDS011;11985;49.404;7.734;2023-04-24T22:10:05;7.35;;;5.15;;
23614;SDS011;11985;49.404;7.734;2023-04-24T22:15:08;7.65;;;5.55;;
23614;SDS011;11985;49.404;7.734;2023-04-24T22:20:11;7.95;;;5.80;;
23614;SDS011;11985;49.404;7.734;2023-04-24T22:25:13;11.25;;;6.68;;
23614;SDS011;11985;49.404;7.734;2023-04-24T22:30:14;9.48;;;6.32;;
23614;SDS011;11985;49.404;7.734;2023-04-24T22:35:18;9.63;;;5.90;;
23614;SDS011;11985;49.404;7.734;2023-04-24T22:40:19;10.15;;;5.68;;
23614;SDS011;11985;49.404;7.734;2023-04-24T22:45:21;11.93;;;6.50;;
23614;SDS011;11985;49.404;7.734;2023-04-24T22:50:24;9.77;;;5.80;;
23614;SDS011;11985;49.404;7.734;2023-04-24T22:55:26;8.40;;;5.65;;
23614;SDS011;11985;49.404;7.734;2023-04-24T23:00:27;11.75;;;6.03;;
23614;SDS011;11985;49.404;7.734;2023-04-24T23:05:30;10.50;;;5.68;;
23614;SDS011;11985;49.404;7.734;2023-04-24T23:10:32;10.70;;;6.18;;
23614;SDS011;11985;49.404;7.734;2023-04-24T23:15:34;10.13;;;6.80;;
23614;SDS011;11985;49.404;7.734;2023-04-24T23:20:39;11.85;;;6.93;;
23614;SDS011;11985;49.404;7.734;2023-04-24T23:25:40;11.20;;;6.82;;
23614;SDS011;11985;49.404;7.734;2023-04-24T23:30:42;10.98;;;7.32;;
23614;SDS011;11985;49.404;7.734;2023-04-24T23:35:45;11.07;;;6.95;;
23614;SDS011;11985;49.404;7.734;2023-04-24T23:40:47;12.55;;;7.60;;
23614;SDS011;11985;49.404;7.734;2023-04-24T23:45:49;16.88;;;7.93;;
23614;SDS011;11985;49.404;7.734;2023-04-24T23:50:52;18.33;;;9.23;;
23614;SDS011;11985;49.404;7.734;2023-04-24T23:55:54;16.42;;;9.95;;
